Time;durP1;ratioP1;P1;durP2;ratioP2;P2;SDS_P1;SDS_P2;PMS_P1;PMS_P2;Temp;Humidity;BMP_temperature;BMP_pressure;BME280_temperature;BME280_humidity;BME280_pressure;Samples;Min_cycle;Max_cycle;Signal;HPM_P1;HPM_P2
2023/04/24 00:02:18;;;;;;;3.95;0.88;;;23.60;99.90;;;;;;5044058;28;20654;-75
2023/04/24 00:04:49;;;;;;;2.70;0.80;;;23.60;99.90;;;;;;5044065;28;20196;-74
2023/04/24 00:07:20;;;;;;;2.75;0.70;;;23.60;99.90;;;;;;5043880;28;20359;-75
2023/04/24 00:09:51;;;;;;;5.18;0.73;;;23.50;99.90;;;;;;5041593;28;20289;-75
2023/04/24 00:12:22;;;;;;;3.05;0.80;;;23.60;99.90;;;;;;5056978;28;20253;-76
2023/04/24 00:14:53;;;;;;;4.13;0.63;;;23.60;99.90;;;;;;5066935;28;20211;-75
2023/04/24 00:17:26;;;;;;;3.78;1.00;;;23.60;99.90;;;;;;5053968;28;20200;-76
2023/04/24 00:19:58;;;;;;;2.72;0.65;;;23.70;99.90;;;;;;5059737;28;20192;-76
2023/04/24 00:22:30;;;;;;;3.00;0.60;;;23.70;99.90;;;;;;5053412;28;20644;-77
2023/04/24 00:25:01;;;;;;;3.03;0.60;;;23.70;99.90;;;;;;5056299;28;20671;-77
2023/04/24 00:27:33;;;;;;;3.83;0.90;;;23.70;99.90;;;;;;5066255;28;20345;-77
2023/04/24 00:30:04;;;;;;;2.00;0.73;;;23.70;99.90;;;;;;5055745;28;20203;-77
2023/04/24 00:32:37;;;;;;;3.88;0.75;;;23.80;99.90;;;;;;5052927;28;20200;-76
2023/04/24 00:35:09;;;;;;;3.15;0.80;;;23.80;99.90;;;;;;5060379;28;20200;-77
2023/04/24 00:37:40;;;;;;;2.65;0.80;;;23.80;99.90;;;;;;5056670;28;20220;-77
2023/04/24 00:40:12;;;;;;;2.08;0.70;;;23.70;99.90;;;;;;5062977;28;20231;-74
2023/04/24 00:42:43;;;;;;;3.47;0.77;;;23.80;99.90;;;;;;5068813;28;20223;-76
2023/04/24 00:45:15;;;;;;;4.47;1.00;;;23.90;99.90;;;;;;5065073;28;20713;-75
2023/04/24 00:47:48;;;;;;;3.85;1.05;;;23.90;99.90;;;;;;5060384;28;20199;-77
2023/04/24 00:50:19;;;;;;;4.28;0.80;;;24.00;99.90;;;;;;5057864;28;20249;-76
2023/04/24 00:52:50;;;;;;;3.75;0.90;;;24.10;99.90;;;;;;5056889;28;20235;-77
2023/04/24 00:55:22;;;;;;;2.78;0.80;;;24.10;99.90;;;;;;5064051;28;20270;-77
2023/04/24 00:57:55;;;;;;;5.63;0.98;;;24.10;99.90;;;;;;5061311;28;20200;-77
2023/04/24 01:00:27;;;;;;;3.72;0.88;;;24.30;99.90;;;;;;5063790;28;20204;-78
2023/04/24 01:03:01;;;;;;;3.35;0.88;;;24.30;99.90;;;;;;5066745;28;20227;-77
2023/04/24 01:05:33;;;;;;;5.40;1.02;;;24.40;99.90;;;;;;5067293;28;20188;-78
2023/04/24 01:08:05;;;;;;;3.95;0.75;;;24.30;99.90;;;;;;5068994;28;20238;-76
2023/04/24 01:10:38;;;;;;;3.67;0.82;;;24.30;99.90;;;;;;5056835;28;20227;-76
2023/04/24 01:13:11;;;;;;;4.28;0.90;;;24.40;99.90;;;;;;5033727;28;20208;-75
2023/04/24 01:15:42;;;;;;;1.83;0.80;;;24.50;99.90;;;;;;5033549;28;20208;-75
2023/04/24 01:18:15;;;;;;;3.83;0.88;;;24.50;99.90;;;;;;5032354;28;20223;-75
2023/04/24 01:20:47;;;;;;;6.32;1.15;;;24.70;99.90;;;;;;5033277;28;20228;-77
2023/04/24 01:23:21;;;;;;;2.95;0.93;;;24.80;99.90;;;;;;5043218;28;20659;-77
2023/04/24 01:25:52;;;;;;;2.30;1.00;;;24.90;99.90;;;;;;5044250;28;20243;-78
2023/04/24 01:28:23;;;;;;;3.80;1.00;;;24.90;99.90;;;;;;5030705;28;20228;-75
2023/04/24 01:30:54;;;;;;;4.68;1.08;;;24.90;99.90;;;;;;5032857;28;20640;-78
2023/04/24 01:33:25;;;;;;;6.35;1.00;;;24.80;99.90;;;;;;5030030;28;20224;-78
2023/04/24 01:35:57;;;;;;;4.47;1.13;;;24.90;99.90;;;;;;5030757;28;20215;-77
2023/04/24 01:38:30;;;;;;;3.33;0.85;;;24.90;99.90;;;;;;5031906;28;20216;-76
2023/04/24 01:41:01;;;;;;;4.05;1.10;;;24.90;99.90;;;;;;5031587;28;20262;-77
2023/04/24 01:43:32;;;;;;;2.83;0.90;;;25.00;99.90;;;;;;5030230;28;20238;-77
2023/04/24 01:46:03;;;;;;;2.15;0.70;;;25.00;99.90;;;;;;5028124;28;20248;-81
2023/04/24 01:48:34;;;;;;;2.05;0.80;;;24.90;99.90;;;;;;5053555;28;20219;-79
2023/04/24 01:51:05;;;;;;;3.58;1.02;;;24.80;99.90;;;;;;5059802;28;20216;-78
2023/04/24 01:53:38;;;;;;;3.53;0.88;;;24.80;99.90;;;;;;5052097;28;20196;-78
2023/04/24 01:56:09;;;;;;;4.68;0.98;;;24.80;99.90;;;;;;5060182;28;20219;-77
2023/04/24 01:58:40;;;;;;;4.68;1.35;;;24.80;99.90;;;;;;5070805;28;20235;-79
2023/04/24 02:01:11;;;;;;;5.15;1.10;;;24.70;99.90;;;;;;5068551;28;20232;-78
2023/04/24 02:03:43;;;;;;;6.72;1.60;;;24.60;99.90;;;;;;5064025;28;20603;-80
2023/04/24 02:06:14;;;;;;;6.95;1.75;;;24.40;99.90;;;;;;5051943;28;20205;-79
2023/04/24 02:08:46;;;;;;;7.53;1.80;;;24.20;99.90;;;;;;5052304;28;20216;-78
2023/04/24 02:11:18;;;;;;;7.22;1.90;;;24.10;99.90;;;;;;5065230;28;20258;-78
2023/04/24 02:13:50;;;;;;;7.70;1.90;;;23.90;99.90;;;;;;5052019;28;20266;-78
2023/04/24 02:16:21;;;;;;;7.68;2.28;;;23.80;99.90;;;;;;5051732;28;20279;-78
2023/04/24 02:18:52;;;;;;;7.40;1.88;;;23.70;99.90;;;;;;5055864;28;20215;-81
2023/04/24 02:21:23;;;;;;;9.52;2.05;;;23.50;99.90;;;;;;5060730;28;20220;-79
2023/04/24 02:23:55;;;;;;;9.18;1.90;;;23.40;99.90;;;;;;5069110;28;20775;-79
2023/04/24 02:26:26;;;;;;;8.70;1.85;;;23.30;99.90;;;;;;5063233;28;20566;-79
2023/04/24 02:28:57;;;;;;;9.82;1.77;;;23.10;99.90;;;;;;5060328;28;20220;-79
2023/04/24 02:31:29;;;;;;;6.93;1.70;;;23.10;99.90;;;;;;5060019;28;20211;-79
2023/04/24 02:34:03;;;;;;;6.55;1.73;;;23.00;99.90;;;;;;5050412;28;20207;-79
2023/04/24 02:36:34;;;;;;;6.82;1.63;;;22.90;99.90;;;;;;5051637;28;20204;-80
2023/04/24 02:39:07;;;;;;;7.68;2.00;;;22.80;99.90;;;;;;5066975;28;20189;-78
2023/04/24 02:41:38;;;;;;;10.40;2.00;;;22.80;99.90;;;;;;5063233;28;20184;-79
2023/04/24 02:44:09;;;;;;;7.47;1.90;;;22.80;99.90;;;;;;5070403;28;20223;-80
2023/04/24 02:46:41;;;;;;;9.30;1.83;;;22.70;99.90;;;;;;5060799;28;20215;-79
2023/04/24 02:49:12;;;;;;;7.68;1.85;;;22.70;99.90;;;;;;5071861;28;20290;-79
2023/04/24 02:51:42;;;;;;;6.70;2.00;;;22.70;99.90;;;;;;5066751;28;20201;-79
2023/04/24 02:54:15;;;;;;;7.00;1.70;;;22.70;99.90;;;;;;5059443;28;20518;-80
2023/04/24 02:56:46;;;;;;;5.53;1.52;;;22.80;99.90;;;;;;5056407;28;20203;-80
2023/04/24 02:59:17;;;;;;;7.78;1.58;;;22.80;99.90;;;;;;5065033;28;20199;-78
2023/04/24 03:01:48;;;;;;;6.55;1.75;;;22.90;99.90;;;;;;5057944;28;20188;-79
2023/04/24 03:04:20;;;;;;;6.18;1.73;;;22.90;99.90;;;;;;5072112;28;20776;-78
2023/04/24 03:06:51;;;;;;;8.10;1.63;;;22.90;99.90;;;;;;5062884;28;20214;-78
2023/04/24 03:09:24;;;;;;;6.47;1.50;;;23.00;99.90;;;;;;5066011;28;20239;-79
2023/04/24 03:11:56;;;;;;;7.13;1.40;;;23.10;99.90;;;;;;5066632;28;20199;-79
2023/04/24 03:14:27;;;;;;;6.70;1.83;;;23.10;99.90;;;;;;5050921;28;20207;-79
2023/04/24 03:16:58;;;;;;;8.52;1.70;;;23.20;99.90;;;;;;5053689;28;20207;-77
2023/04/24 03:19:29;;;;;;;9.20;1.80;;;23.20;99.90;;;;;;5062082;28;20203;-79
2023/04/24 03:22:01;;;;;;;8.68;1.92;;;23.20;99.90;;;;;;5052223;28;20269;-79
2023/04/24 03:24:34;;;;;;;5.13;1.70;;;23.30;99.90;;;;;;5052613;28;20227;-78
2023/04/24 03:27:05;;;;;;;5.78;1.67;;;23.30;99.90;;;;;;5058138;28;20228;-78
2023/04/24 03:29:36;;;;;;;8.25;2.00;;;23.20;99.90;;;;;;5060365;28;20292;-78
2023/04/24 03:32:07;;;;;;;6.57;1.77;;;23.20;99.90;;;;;;5051385;28;20208;-79
2023/04/24 03:34:38;;;;;;;7.13;2.05;;;23.20;99.90;;;;;;5050753;28;20656;-78
2023/04/24 03:37:09;;;;;;;8.18;1.80;;;23.20;99.90;;;;;;5051051;28;21964;-78
2023/04/24 03:39:42;;;;;;;4.65;1.50;;;23.20;99.90;;;;;;5070524;28;20196;-77
2023/04/24 03:42:13;;;;;;;7.90;1.80;;;23.20;99.90;;;;;;5061355;28;20699;-77
2023/04/24 03:44:44;;;;;;;10.40;2.30;;;23.20;99.90;;;;;;5066223;28;20224;-76
2023/04/24 03:47:15;;;;;;;6.28;1.90;;;23.10;99.90;;;;;;5055654;28;20643;-79
2023/04/24 03:49:57;;;;;;;7.18;1.90;;;23.10;99.90;;;;;;5054303;28;20201;-78
2023/04/24 03:52:34;;;;;;;6.80;1.88;;;23.10;99.90;;;;;;5060401;28;20228;-80
2023/04/24 03:55:08;;;;;;;8.02;2.05;;;23.10;99.90;;;;;;5062463;28;20829;-79
2023/04/24 03:57:41;;;;;;;7.65;1.63;;;23.10;99.90;;;;;;5057500;28;20662;-78
2023/04/24 04:00:14;;;;;;;6.55;1.65;;;23.10;99.90;;;;;;5070184;28;20200;-78
2023/04/24 04:02:46;;;;;;;8.27;2.03;;;23.10;99.90;;;;;;5060029;28;20211;-79
2023/04/24 04:05:17;;;;;;;7.53;1.60;;;23.10;99.90;;;;;;5067796;28;20223;-80
2023/04/24 04:07:48;;;;;;;7.82;2.13;;;23.10;99.90;;;;;;5067614;28;20211;-83
2023/04/24 04:10:21;;;;;;;7.55;1.90;;;23.10;99.90;;;;;;5074121;28;20221;-80
2023/04/24 04:12:58;;;;;;;6.43;1.70;;;23.20;99.90;;;;;;5065798;28;20196;-81
2023/04/24 04:15:29;;;;;;;6.28;1.60;;;23.20;99.90;;;;;;5060069;28;20224;-79
2023/04/24 04:18:10;;;;;;;5.70;1.73;;;23.20;99.90;;;;;;5079479;28;20310;-82
2023/04/24 04:20:42;;;;;;;7.28;2.10;;;23.40;99.90;;;;;;5063276;28;20220;-80
2023/04/24 04:23:14;;;;;;;7.88;1.73;;;23.50;99.90;;;;;;5061245;28;20228;-80
2023/04/24 04:25:47;;;;;;;9.50;1.60;;;23.70;99.90;;;;;;5057676;28;20278;-78
2023/04/24 04:28:19;;;;;;;9.63;1.75;;;23.70;99.90;;;;;;5063473;28;20203;-79
2023/04/24 04:30:53;;;;;;;6.80;1.70;;;23.70;99.90;;;;;;5072995;28;20192;-78
2023/04/24 04:33:24;;;;;;;8.93;2.35;;;23.80;99.90;;;;;;5073170;28;20199;-77
2023/04/24 04:35:58;;;;;;;8.35;1.77;;;23.80;99.90;;;;;;5063761;28;20563;-76
2023/04/24 04:38:29;;;;;;;10.25;2.03;;;23.80;99.90;;;;;;5068476;28;20199;-77
2023/04/24 04:41:03;;;;;;;8.50;2.38;;;23.90;99.90;;;;;;5060690;28;20659;-78
2023/04/24 04:43:34;;;;;;;6.50;1.83;;;23.90;99.90;;;;;;5073652;28;20295;-77
2023/04/24 04:46:05;;;;;;;10.57;2.30;;;24.00;99.90;;;;;;5069007;28;20238;-78
2023/04/24 04:48:36;;;;;;;13.65;2.97;;;24.10;99.90;;;;;;5065841;28;20208;-79
2023/04/24 04:51:07;;;;;;;10.52;2.03;;;24.10;99.90;;;;;;5066809;28;20231;-78
2023/04/24 04:53:38;;;;;;;15.88;2.72;;;24.00;99.90;;;;;;5065178;28;20211;-78
2023/04/24 04:56:12;;;;;;;9.60;2.30;;;23.90;99.90;;;;;;5058466;28;20722;-78
2023/04/24 04:58:43;;;;;;;12.43;2.20;;;23.90;99.90;;;;;;5054570;28;20197;-77
2023/04/24 05:01:14;;;;;;;11.25;2.70;;;23.90;99.90;;;;;;5053560;28;20193;-78
2023/04/24 05:03:45;;;;;;;9.00;2.28;;;24.00;99.90;;;;;;5053917;28;20207;-78
2023/04/24 05:06:17;;;;;;;14.80;2.47;;;24.10;99.90;;;;;;5055447;28;20196;-78
2023/04/24 05:08:48;;;;;;;11.05;2.67;;;24.10;99.90;;;;;;5055585;28;20201;-78
2023/04/24 05:11:23;;;;;;;11.70;2.30;;;24.00;99.90;;;;;;5060307;28;20652;-78
2023/04/24 05:13:54;;;;;;;9.45;2.22;;;23.90;99.90;;;;;;5055312;28;20216;-78
2023/04/24 05:16:25;;;;;;;9.32;2.50;;;23.90;99.90;;;;;;5057190;28;20216;-77
2023/04/24 05:18:56;;;;;;;11.68;2.40;;;23.90;99.90;;;;;;5071888;28;20215;-78
2023/04/24 05:21:27;;;;;;;12.50;3.00;;;23.90;99.90;;;;;;5057877;28;20231;-77
2023/04/24 05:23:58;;;;;;;11.45;2.40;;;23.90;99.90;;;;;;5058660;28;20199;-78
2023/04/24 05:26:32;;;;;;;16.35;3.13;;;23.90;99.90;;;;;;5063676;28;20230;-78
2023/04/24 05:29:04;;;;;;;15.07;3.10;;;23.70;99.90;;;;;;5074192;28;20200;-78
2023/04/24 05:31:35;;;;;;;14.70;3.30;;;23.60;99.90;;;;;;5070710;28;20216;-78
2023/04/24 05:34:06;;;;;;;10.75;2.75;;;23.50;99.90;;;;;;5053978;28;20216;-78
2023/04/24 05:36:37;;;;;;;12.02;3.00;;;23.40;99.90;;;;;;5057858;28;20197;-78
2023/04/24 05:39:08;;;;;;;14.68;3.17;;;23.40;99.90;;;;;;5062917;28;20193;-78
2023/04/24 05:41:42;;;;;;;11.45;3.00;;;23.30;99.90;;;;;;5061348;28;20705;-79
2023/04/24 05:44:13;;;;;;;13.35;2.72;;;23.20;99.90;;;;;;5054788;28;20220;-79
2023/04/24 05:46:52;;;;;;;12.45;2.67;;;23.10;99.90;;;;;;5066130;28;20200;-79
2023/04/24 05:49:23;;;;;;;11.57;2.88;;;23.10;99.90;;;;;;5059138;28;20554;-79
2023/04/24 05:51:54;;;;;;;13.15;3.08;;;23.00;99.90;;;;;;5054524;28;20193;-79
2023/04/24 05:54:25;;;;;;;11.90;2.88;;;23.00;99.90;;;;;;5053456;28;20598;-79
2023/04/24 05:57:01;;;;;;;13.05;2.92;;;22.90;99.90;;;;;;5064002;28;20275;-80
2023/04/24 05:59:32;;;;;;;12.35;2.85;;;22.90;99.90;;;;;;5076450;28;20191;-79
2023/04/24 06:02:05;;;;;;;14.35;3.10;;;22.90;99.90;;;;;;5074411;28;20433;-79
2023/04/24 06:04:36;;;;;;;13.55;3.08;;;22.90;99.90;;;;;;5062747;28;20264;-78
2023/04/24 06:07:07;;;;;;;11.18;2.90;;;22.80;99.90;;;;;;5051015;28;20254;-78
2023/04/24 06:09:40;;;;;;;17.23;3.17;;;22.70;99.90;;;;;;5051016;28;20204;-79
2023/04/24 06:12:13;;;;;;;14.20;2.92;;;22.60;99.90;;;;;;5062470;28;20199;-78
2023/04/24 06:14:44;;;;;;;11.18;2.63;;;22.50;99.90;;;;;;5062095;28;20228;-79
2023/04/24 06:17:15;;;;;;;16.42;3.03;;;22.50;99.90;;;;;;5049555;28;20200;-79
2023/04/24 06:19:46;;;;;;;10.65;2.72;;;22.40;99.90;;;;;;5057720;28;20674;-79
2023/04/24 06:22:17;;;;;;;14.25;3.05;;;22.40;99.90;;;;;;5050968;28;20203;-79
2023/04/24 06:24:49;;;;;;;12.20;2.90;;;22.40;99.90;;;;;;5052592;28;20222;-79
2023/04/24 06:27:22;;;;;;;11.40;2.45;;;22.30;99.90;;;;;;5058041;28;20232;-80
2023/04/24 06:29:54;;;;;;;12.85;2.60;;;22.20;99.90;;;;;;5058832;28;20203;-79
2023/04/24 06:32:27;;;;;;;11.40;2.72;;;22.20;99.90;;;;;;5062809;28;20263;-78
2023/04/24 06:34:58;;;;;;;13.63;2.90;;;22.10;99.90;;;;;;5064818;28;20228;-79
2023/04/24 06:37:29;;;;;;;12.95;2.63;;;22.10;99.90;;;;;;5063232;28;20694;-79
2023/04/24 06:40:00;;;;;;;11.55;2.63;;;22.10;99.90;;;;;;5055219;28;20203;-79
2023/04/24 06:42:34;;;;;;;13.25;2.83;;;22.00;99.90;;;;;;5062214;28;20216;-78
2023/04/24 06:45:06;;;;;;;12.70;2.85;;;22.00;99.90;;;;;;5056844;28;20243;-78
2023/04/24 06:47:37;;;;;;;18.23;2.92;;;21.90;99.90;;;;;;5070913;28;20716;-78
2023/04/24 06:50:10;;;;;;;11.60;2.72;;;21.90;99.90;;;;;;5066945;28;20219;-78
2023/04/24 06:52:41;;;;;;;12.40;2.65;;;21.90;99.90;;;;;;5068899;28;20196;-79
2023/04/24 06:55:13;;;;;;;13.65;2.50;;;21.80;99.90;;;;;;5057605;28;20220;-79
2023/04/24 06:57:46;;;;;;;12.32;2.60;;;21.80;99.90;;;;;;5065854;28;20249;-79
2023/04/24 07:00:18;;;;;;;11.18;2.50;;;21.80;99.90;;;;;;5057669;28;20215;-81
2023/04/24 07:02:50;;;;;;;13.73;2.55;;;21.70;99.90;;;;;;5064626;28;20188;-80
2023/04/24 07:05:21;;;;;;;12.55;2.67;;;21.70;99.90;;;;;;5064555;28;20223;-80
2023/04/24 07:07:53;;;;;;;11.27;2.65;;;21.70;99.90;;;;;;5061556;28;20250;-79
2023/04/24 07:10:24;;;;;;;8.32;2.22;;;21.60;99.90;;;;;;5061709;28;20273;-80
2023/04/24 07:12:57;;;;;;;11.02;2.30;;;21.60;99.90;;;;;;5058334;28;20797;-79
2023/04/24 07:15:28;;;;;;;10.35;2.20;;;21.50;99.90;;;;;;5063387;28;20217;-80
2023/04/24 07:17:59;;;;;;;7.43;2.60;;;21.50;99.90;;;;;;5058432;28;20207;-79
2023/04/24 07:20:30;;;;;;;9.73;2.08;;;21.40;99.90;;;;;;5048725;28;20193;-79
2023/04/24 07:23:02;;;;;;;6.82;1.90;;;21.30;99.90;;;;;;5054339;28;20200;-78
2023/04/24 07:25:33;;;;;;;6.13;1.55;;;21.20;99.90;;;;;;5052823;28;21965;-78
2023/04/24 07:28:06;;;;;;;8.05;1.92;;;21.10;99.90;;;;;;5058268;28;20195;-78
2023/04/24 07:30:45;;;;;;;7.57;1.65;;;21.00;99.90;;;;;;5065543;28;20195;-79
2023/04/24 07:33:17;;;;;;;8.45;1.98;;;20.80;99.90;;;;;;5066959;28;20196;-80
2023/04/24 07:35:49;;;;;;;6.07;1.67;;;20.70;99.90;;;;;;5054852;28;20199;-77
2023/04/24 07:38:20;;;;;;;9.20;2.30;;;20.60;99.90;;;;;;5061677;28;20234;-79
2023/04/24 07:41:03;;;;;;;4.97;1.50;;;20.60;99.90;;;;;;5065582;28;20278;-80
2023/04/24 07:43:36;;;;;;;6.72;1.25;;;20.40;99.90;;;;;;5062657;28;20222;-78
2023/04/24 07:46:07;;;;;;;9.07;1.70;;;20.40;99.90;;;;;;5060472;28;20227;-78
2023/04/24 07:48:38;;;;;;;7.88;1.55;;;20.40;99.90;;;;;;5066201;28;20215;-77
2023/04/24 07:51:12;;;;;;;6.90;1.73;;;20.30;99.90;;;;;;5062069;28;20189;-78
2023/04/24 07:53:43;;;;;;;6.63;1.67;;;20.20;99.90;;;;;;5061294;28;20224;-77
2023/04/24 07:56:14;;;;;;;7.88;1.90;;;20.20;99.90;;;;;;5061083;28;20218;-77
2023/04/24 07:58:48;;;;;;;5.72;1.52;;;20.20;99.90;;;;;;5072219;28;20192;-78
2023/04/24 08:01:19;;;;;;;4.50;1.65;;;20.30;99.90;;;;;;5063819;28;20216;-77
2023/04/24 08:03:51;;;;;;;5.82;1.50;;;20.30;99.90;;;;;;5059737;28;20216;-76
2023/04/24 08:06:22;;;;;;;6.20;1.50;;;20.30;99.90;;;;;;5069733;28;20224;-76
2023/04/24 08:08:53;;;;;;;6.85;1.67;;;20.30;99.90;;;;;;5065616;28;20678;-78
2023/04/24 08:11:24;;;;;;;6.20;1.67;;;20.30;99.90;;;;;;5063071;28;20849;-79
2023/04/24 08:13:59;;;;;;;8.57;1.80;;;20.30;99.90;;;;;;5056085;28;20200;-78
2023/04/24 08:16:30;;;;;;;7.97;2.63;;;20.40;99.90;;;;;;5057519;28;20208;-77
2023/04/24 08:19:02;;;;;;;10.90;1.63;;;20.40;99.90;;;;;;5060511;28;20196;-78
2023/04/24 08:21:33;;;;;;;11.63;1.90;;;20.40;99.90;;;;;;5059205;28;20592;-76
2023/04/24 08:24:07;;;;;;;8.10;1.80;;;20.50;99.90;;;;;;5055905;28;20223;-78
2023/04/24 08:26:38;;;;;;;9.25;1.95;;;20.60;99.90;;;;;;5063071;28;20288;-77
2023/04/24 08:29:11;;;;;;;9.95;2.30;;;20.60;99.90;;;;;;5061249;28;20216;-79
2023/04/24 08:31:44;;;;;;;7.38;1.83;;;20.60;99.90;;;;;;5064797;28;20211;-78
2023/04/24 08:34:15;;;;;;;8.93;2.22;;;20.70;99.90;;;;;;5071973;28;20216;-77
2023/04/24 08:36:46;;;;;;;8.75;2.15;;;20.70;99.90;;;;;;5064576;28;20216;-77
2023/04/24 08:39:18;;;;;;;8.05;2.08;;;20.70;99.90;;;;;;5077044;28;20216;-77
2023/04/24 08:41:50;;;;;;;8.48;2.20;;;20.60;99.90;;;;;;5074067;28;20227;-79
2023/04/24 08:44:24;;;;;;;10.25;2.45;;;20.60;99.90;;;;;;5085523;28;20192;-79
2023/04/24 08:46:56;;;;;;;12.50;3.13;;;20.70;99.90;;;;;;5074725;28;20231;-77
2023/04/24 08:49:29;;;;;;;12.73;3.60;;;20.60;99.90;;;;;;5077856;28;20207;-78
2023/04/24 08:52:01;;;;;;;10.65;2.67;;;20.70;99.90;;;;;;5062734;28;20200;-78
2023/04/24 08:54:36;;;;;;;9.35;2.83;;;20.70;99.90;;;;;;5061665;28;20192;-77
2023/04/24 08:57:11;;;;;;;13.15;3.03;;;20.70;99.90;;;;;;5068091;28;20210;-77
2023/04/24 08:59:45;;;;;;;8.98;2.55;;;20.70;99.90;;;;;;5060062;28;20569;-77
2023/04/24 09:02:19;;;;;;;14.52;3.17;;;20.70;99.90;;;;;;5074097;28;20571;-77
2023/04/24 09:04:52;;;;;;;15.35;3.22;;;20.60;99.90;;;;;;5070769;28;20576;-77
2023/04/24 09:07:24;;;;;;;12.90;2.88;;;20.60;99.90;;;;;;5063300;28;20219;-77
2023/04/24 09:09:56;;;;;;;11.50;2.72;;;20.60;99.90;;;;;;5057693;28;20204;-77
2023/04/24 09:12:27;;;;;;;11.30;2.65;;;20.60;99.90;;;;;;5067176;28;20203;-78
2023/04/24 09:15:01;;;;;;;11.95;3.00;;;20.60;99.90;;;;;;5065418;28;20191;-77
2023/04/24 09:17:32;;;;;;;11.10;3.03;;;20.60;99.90;;;;;;5059796;28;20204;-77
2023/04/24 09:20:04;;;;;;;11.18;3.10;;;20.60;99.90;;;;;;5068264;28;20196;-76
2023/04/24 09:22:35;;;;;;;11.65;2.97;;;20.60;99.90;;;;;;5064146;28;20258;-77
2023/04/24 09:25:12;;;;;;;12.18;2.60;;;20.60;99.90;;;;;;5053640;28;20197;-77
2023/04/24 09:27:47;;;;;;;10.48;2.70;;;20.60;99.90;;;;;;5062152;28;20693;-77
2023/04/24 09:30:25;;;;;;;13.60;2.90;;;20.50;99.90;;;;;;5054886;28;20192;-77
2023/04/24 09:33:13;;;;;;;14.63;3.15;;;20.50;99.90;;;;;;5065184;28;20215;-77
2023/04/24 09:35:51;;;;;;;10.45;2.42;;;20.50;99.90;;;;;;5056415;28;20205;-76
2023/04/24 09:38:27;;;;;;;11.38;2.80;;;20.40;99.90;;;;;;5064755;28;20192;-78
2023/04/24 09:41:02;;;;;;;14.63;2.75;;;20.30;99.90;;;;;;5061289;28;20215;-77
2023/04/24 09:43:33;;;;;;;7.70;2.40;;;20.30;99.90;;;;;;5070836;28;20674;-79
2023/04/24 09:46:09;;;;;;;11.85;2.78;;;20.30;99.90;;;;;;5063350;28;20229;-78
2023/04/24 09:48:41;;;;;;;11.10;2.63;;;20.30;99.90;;;;;;5060366;28;20200;-78
2023/04/24 09:51:12;;;;;;;12.75;3.20;;;20.30;99.90;;;;;;5051085;28;20188;-78
2023/04/24 09:53:47;;;;;;;9.32;2.95;;;20.30;99.90;;;;;;5072119;28;20208;-77
2023/04/24 09:56:20;;;;;;;10.40;2.88;;;20.30;99.90;;;;;;5065893;28;20568;-77
2023/04/24 09:58:51;;;;;;;12.80;3.00;;;20.30;99.90;;;;;;5063667;28;20200;-78
2023/04/24 10:01:33;;;;;;;13.57;3.10;;;20.30;99.90;;;;;;5053354;28;20201;-78
2023/04/24 10:04:05;;;;;;;10.35;2.92;;;20.30;99.90;;;;;;5061558;28;20207;-77
2023/04/24 10:06:39;;;;;;;8.98;2.30;;;20.30;99.90;;;;;;5050792;28;20228;-76
2023/04/24 10:09:11;;;;;;;9.90;2.67;;;20.30;99.90;;;;;;5062395;28;20200;-76
2023/04/24 10:11:46;;;;;;;9.60;2.38;;;20.30;99.90;;;;;;5067696;28;20223;-76
2023/04/24 10:14:20;;;;;;;8.75;2.42;;;20.20;99.90;;;;;;5065580;28;20192;-76
2023/04/24 10:16:56;;;;;;;9.45;2.42;;;20.20;99.90;;;;;;5058976;28;20199;-75
2023/04/24 10:19:29;;;;;;;7.32;2.38;;;20.10;99.90;;;;;;5052273;28;20207;-75
2023/04/24 10:22:03;;;;;;;8.93;2.28;;;20.10;99.90;;;;;;5063897;28;20195;-75
2023/04/24 10:24:37;;;;;;;8.88;2.30;;;20.10;99.90;;;;;;5062722;28;20187;-76
2023/04/24 10:27:10;;;;;;;9.02;2.20;;;20.00;99.90;;;;;;5055181;28;20278;-76
2023/04/24 10:29:44;;;;;;;7.22;1.98;;;20.00;99.90;;;;;;5060309;28;20192;-76
2023/04/24 10:32:19;;;;;;;6.75;2.03;;;20.00;99.90;;;;;;5054961;28;20209;-76
2023/04/24 10:34:50;;;;;;;8.30;2.22;;;20.00;99.90;;;;;;5060485;28;20203;-76
2023/04/24 10:37:22;;;;;;;6.53;1.98;;;20.00;99.90;;;;;;5054400;28;20675;-76
2023/04/24 10:39:54;;;;;;;6.75;1.80;;;20.00;99.90;;;;;;5056923;28;20202;-76
2023/04/24 10:42:25;;;;;;;7.72;1.95;;;20.00;99.90;;;;;;5062795;28;20211;-75
2023/04/24 10:44:57;;;;;;;8.55;1.75;;;20.00;99.90;;;;;;5051370;28;20983;-76
2023/04/24 10:47:30;;;;;;;11.70;2.55;;;20.00;99.90;;;;;;5064171;28;20227;-76
2023/04/24 10:50:04;;;;;;;9.23;2.60;;;20.00;99.90;;;;;;5069581;28;20204;-75
2023/04/24 10:52:50;;;;;;;5.82;1.98;;;20.00;99.90;;;;;;5055465;28;20651;-75
2023/04/24 10:55:45;;;;;;;9.80;2.17;;;20.10;99.90;;;;;;5068982;28;20200;-75
2023/04/24 10:58:16;;;;;;;7.38;2.30;;;20.00;99.90;;;;;;5050262;28;20290;-75
2023/04/24 11:00:58;;;;;;;7.57;1.77;;;20.00;99.90;;;;;;5058915;28;20189;-74
2023/04/24 11:03:32;;;;;;;10.60;2.20;;;20.00;99.90;;;;;;5063928;28;20192;-77
2023/04/24 11:06:05;;;;;;;8.15;1.77;;;20.10;99.90;;;;;;5058847;28;20226;-75
2023/04/24 11:08:40;;;;;;;6.88;2.10;;;20.10;99.90;;;;;;5065802;28;20192;-75
2023/04/24 11:11:15;;;;;;;7.55;2.00;;;20.10;99.90;;;;;;5057352;28;20678;-76
2023/04/24 11:14:12;;;;;;;10.57;2.35;;;20.10;99.90;;;;;;5056217;28;20199;-76
2023/04/24 11:16:55;;;;;;;7.28;2.10;;;20.10;99.90;;;;;;5068322;28;20685;-76
2023/04/24 11:19:29;;;;;;;7.28;2.08;;;20.10;99.90;;;;;;5070565;28;20575;-75
2023/04/24 11:22:02;;;;;;;7.72;2.20;;;20.10;99.90;;;;;;5052265;28;20202;-76
2023/04/24 11:24:42;;;;;;;9.48;2.45;;;20.10;99.90;;;;;;5053477;28;20244;-76
2023/04/24 11:27:19;;;;;;;7.80;2.10;;;20.10;99.90;;;;;;5058610;28;20227;-76
2023/04/24 11:29:51;;;;;;;7.25;2.10;;;20.10;99.90;;;;;;5065076;28;20195;-76
2023/04/24 11:32:27;;;;;;;9.45;2.00;;;20.10;99.90;;;;;;5062158;28;20210;-76
2023/04/24 11:35:02;;;;;;;5.80;2.20;;;20.10;99.90;;;;;;5051672;28;20231;-76
2023/04/24 11:37:37;;;;;;;8.57;2.42;;;20.00;99.90;;;;;;5070428;28;20203;-77
2023/04/24 11:40:09;;;;;;;9.15;2.40;;;20.00;99.90;;;;;;5051271;28;20192;-75
2023/04/24 11:42:41;;;;;;;6.68;2.08;;;20.00;99.90;;;;;;5054081;28;20203;-76
2023/04/24 11:45:19;;;;;;;7.15;2.08;;;20.00;99.90;;;;;;5057469;28;20204;-76
2023/04/24 11:47:50;;;;;;;7.00;1.80;;;20.00;99.90;;;;;;5053062;28;20633;-78
2023/04/24 11:50:28;;;;;;;6.97;2.00;;;20.00;99.90;;;;;;5057108;28;20304;-77
2023/04/24 11:53:00;;;;;;;8.32;2.20;;;19.90;99.90;;;;;;5056808;28;20223;-77
2023/04/24 11:55:32;;;;;;;9.43;2.20;;;19.90;99.90;;;;;;5050829;28;20763;-76
2023/04/24 11:58:08;;;;;;;7.70;2.08;;;19.80;99.90;;;;;;5063720;28;20220;-76
2023/04/24 12:00:39;;;;;;;5.70;2.08;;;19.90;99.90;;;;;;5057693;28;20204;-78
2023/04/24 12:03:20;;;;;;;7.65;2.20;;;19.80;99.90;;;;;;5063966;28;20200;-78
2023/04/24 12:05:53;;;;;;;8.00;2.30;;;19.80;99.90;;;;;;5061728;28;20259;-76
2023/04/24 12:08:32;;;;;;;7.63;2.38;;;19.80;99.90;;;;;;5058131;28;20391;-76
2023/04/24 12:11:04;;;;;;;7.28;2.22;;;19.70;99.90;;;;;;5063243;28;20255;-76
2023/04/24 12:13:35;;;;;;;5.43;1.95;;;19.70;99.90;;;;;;5060737;28;20652;-75
2023/04/24 12:16:11;;;;;;;7.22;1.92;;;19.70;99.90;;;;;;5060572;28;20220;-77
2023/04/24 12:18:47;;;;;;;6.72;2.20;;;19.70;99.90;;;;;;5051581;28;20578;-77
2023/04/24 12:21:26;;;;;;;7.47;2.28;;;19.70;99.90;;;;;;5068211;28;20188;-79
2023/04/24 12:23:59;;;;;;;8.82;2.17;;;19.70;99.90;;;;;;5061678;28;20222;-75
2023/04/24 12:26:31;;;;;;;5.65;2.10;;;19.70;99.90;;;;;;5065968;28;20232;-77
2023/04/24 12:29:07;;;;;;;5.03;2.10;;;19.70;99.90;;;;;;5057620;28;20197;-77
2023/04/24 12:31:38;;;;;;;7.47;2.40;;;19.70;99.90;;;;;;5057936;28;20253;-76
2023/04/24 12:34:22;;;;;;;7.65;2.28;;;19.60;99.90;;;;;;5070924;28;20279;-75
2023/04/24 12:36:55;;;;;;;4.80;2.20;;;19.50;99.90;;;;;;5078951;28;20261;-78
2023/04/24 12:39:27;;;;;;;8.02;2.30;;;19.50;99.90;;;;;;5079044;28;20219;-77
2023/04/24 12:42:01;;;;;;;8.68;2.30;;;19.40;99.90;;;;;;5071612;28;20204;-77
2023/04/24 12:44:36;;;;;;;9.63;2.30;;;19.40;99.90;;;;;;5068327;28;20235;-78
2023/04/24 12:47:12;;;;;;;6.03;2.25;;;19.40;99.90;;;;;;5065078;28;20227;-76
2023/04/24 12:49:43;;;;;;;8.02;2.30;;;19.40;99.90;;;;;;5060195;28;20219;-77
2023/04/24 12:52:17;;;;;;;5.70;2.03;;;19.30;99.90;;;;;;5063549;28;20208;-76
2023/04/24 12:54:48;;;;;;;8.00;2.30;;;19.30;99.90;;;;;;5063906;28;20213;-79
2023/04/24 12:57:19;;;;;;;9.35;2.42;;;19.30;99.90;;;;;;5053155;28;20245;-77
2023/04/24 12:59:50;;;;;;;8.65;2.30;;;19.30;99.90;;;;;;5056568;28;20204;-79
2023/04/24 13:02:22;;;;;;;10.90;2.65;;;19.30;99.90;;;;;;5054036;28;20205;-77
2023/04/24 13:04:54;;;;;;;6.97;2.20;;;19.30;99.90;;;;;;5052805;28;20203;-75
2023/04/24 13:07:28;;;;;;;10.13;2.20;;;19.20;99.90;;;;;;5054833;28;20213;-77
2023/04/24 13:10:00;;;;;;;6.47;2.15;;;19.20;99.90;;;;;;5051149;28;20203;-77
2023/04/24 13:12:31;;;;;;;8.60;2.53;;;19.20;99.90;;;;;;5051163;28;20243;-78